createdAt,value
2022-07-29T00:01:53.289Z,100.00
2022-07-29T00:04:21.408Z,100.00
2022-07-29T00:06:48.350Z,100.00
2022-07-29T00:09:15.057Z,100.00
2022-07-29T00:11:41.676Z,100.00
2022-07-29T00:14:08.927Z,100.00
2022-07-29T00:16:35.517Z,100.00
2022-07-29T00:19:02.591Z,100.00
2022-07-29T00:21:29.504Z,100.00
2022-07-29T00:23:56.181Z,100.00
2022-07-29T00:26:22.798Z,100.00
2022-07-29T00:28:49.378Z,100.00
2022-07-29T00:49:46.923Z,100.00
2022-07-29T00:52:17.052Z,100.00
2022-07-29T00:54:44.930Z,100.00
2022-07-29T00:57:13.208Z,100.00
2022-07-29T00:59:40.221Z,100.00
2022-07-29T01:02:07.015Z,100.00
2022-07-29T01:04:34.210Z,100.00
2022-07-29T01:07:05.204Z,100.00
2022-07-29T01:09:46.151Z,100.00
2022-07-29T01:12:18.870Z,100.00
2022-07-29T01:14:48.174Z,100.00
2022-07-29T01:17:21.167Z,100.00
2022-07-29T01:19:53.484Z,100.00
2022-07-29T01:22:26.171Z,100.00
2022-07-29T01:25:18.714Z,100.00
2022-07-29T01:28:00.378Z,100.00
2022-07-29T01:30:30.051Z,100.00
2022-07-29T01:33:05.164Z,100.00
2022-07-29T01:35:41.320Z,100.00
2022-07-29T01:38:16.599Z,100.00
2022-07-29T01:40:52.310Z,100.00
2022-07-29T01:43:24.783Z,100.00
2022-07-29T01:46:01.319Z,100.00
2022-07-29T01:48:49.545Z,100.00
2022-07-29T01:51:21.405Z,100.00
2022-07-29T01:54:06.731Z,100.00
2022-07-29T01:56:36.181Z,100.00
2022-07-29T01:59:05.563Z,100.00
2022-07-29T02:01:34.259Z,100.00
2022-07-29T02:04:04.496Z,100.00
2022-07-29T02:06:34.345Z,100.00
2022-07-29T02:09:03.266Z,100.00
2022-07-29T02:11:34.306Z,100.00
2022-07-29T02:14:02.627Z,100.00
2022-07-29T02:16:33.535Z,100.00
2022-07-29T02:19:03.109Z,100.00
2022-07-29T02:21:31.301Z,100.00
2022-07-29T02:24:00.530Z,100.00
2022-07-29T02:26:28.789Z,100.00
2022-07-29T02:28:58.403Z,100.00
2022-07-29T02:31:30.023Z,100.00
2022-07-29T02:33:58.035Z,100.00
2022-07-29T02:36:25.867Z,100.00
2022-07-29T02:38:54.478Z,100.00
2022-07-29T02:41:30.650Z,100.00
2022-07-29T02:44:04.648Z,100.00
2022-07-29T02:46:35.601Z,100.00
2022-07-29T02:49:14.372Z,100.00
2022-07-29T02:51:47.780Z,100.00
2022-07-29T02:54:28.665Z,100.00
2022-07-29T02:56:58.960Z,100.00
2022-07-29T02:59:28.818Z,100.00
2022-07-29T03:01:58.688Z,100.00
2022-07-29T03:04:27.259Z,100.00
2022-07-29T03:06:54.280Z,100.00
2022-07-29T03:09:22.474Z,100.00
2022-07-29T03:11:50.671Z,100.00
2022-07-29T03:14:21.552Z,100.00
2022-07-29T03:16:49.435Z,100.00
2022-07-29T03:19:16.515Z,100.00
2022-07-29T03:21:43.248Z,100.00
2022-07-29T03:24:10.760Z,100.00
2022-07-29T03:26:37.850Z,100.00
2022-07-29T03:29:04.437Z,100.00
2022-07-29T03:31:31.661Z,100.00
2022-07-29T03:33:59.396Z,100.00
2022-07-29T03:36:25.972Z,100.00
2022-07-29T03:38:53.258Z,100.00
2022-07-29T03:41:23.544Z,100.00
2022-07-29T03:43:52.372Z,100.00
2022-07-29T03:46:21.967Z,100.00
2022-07-29T03:48:51.328Z,100.00
2022-07-29T03:51:18.081Z,100.00
2022-07-29T03:53:45.033Z,100.00
2022-07-29T03:56:16.763Z,100.00
2022-07-29T03:58:45.329Z,100.00
2022-07-29T04:01:12.871Z,100.00
2022-07-29T04:03:40.385Z,100.00
2022-07-29T04:06:08.020Z,100.00
2022-07-29T04:08:35.720Z,100.00
2022-07-29T04:11:03.123Z,100.00
2022-07-29T04:13:29.594Z,100.00
2022-07-29T04:15:56.361Z,100.00
2022-07-29T04:18:23.045Z,100.00
2022-07-29T04:20:49.973Z,100.00
2022-07-29T04:23:16.694Z,100.00
2022-07-29T04:25:43.820Z,100.00
2022-07-29T04:28:11.383Z,100.00
2022-07-29T04:30:38.812Z,100.00
2022-07-29T04:33:06.139Z,100.00
2022-07-29T04:35:38.292Z,100.00
2022-07-29T04:38:06.582Z,100.00
2022-07-29T04:40:34.170Z,100.00
2022-07-29T04:43:03.196Z,100.00
2022-07-29T04:45:32.295Z,100.00
2022-07-29T04:47:58.896Z,100.00
2022-07-29T04:50:25.565Z,100.00
2022-07-29T04:52:52.203Z,100.00
2022-07-29T04:55:19.084Z,100.00
2022-07-29T04:57:45.773Z,100.00
2022-07-29T05:00:13.077Z,100.00
2022-07-29T05:02:39.612Z,100.00
2022-07-29T05:05:06.617Z,100.00
2022-07-29T05:07:33.419Z,100.00
2022-07-29T05:10:00.513Z,100.00
2022-07-29T05:12:27.198Z,100.00
2022-07-29T05:14:53.805Z,100.00
2022-07-29T05:17:20.426Z,100.00
2022-07-29T05:19:47.232Z,100.00
2022-07-29T05:22:13.894Z,100.00
2022-07-29T05:24:40.462Z,100.00
2022-07-29T05:27:07.075Z,100.00
2022-07-29T05:29:44.493Z,100.00
2022-07-29T05:32:12.983Z,100.00
2022-07-29T05:34:51.252Z,100.00
2022-07-29T05:37:19.908Z,100.00
2022-07-29T05:39:48.862Z,100.00
2022-07-29T05:42:17.385Z,100.00
2022-07-29T05:44:44.101Z,100.00
2022-07-29T05:47:10.750Z,100.00
2022-07-29T05:49:37.528Z,100.00
2022-07-29T05:52:04.586Z,100.00
2022-07-29T05:54:31.676Z,100.00
2022-07-29T05:56:58.263Z,100.00
2022-07-29T05:59:29.861Z,100.00
2022-07-29T06:01:58.200Z,100.00
2022-07-29T06:04:25.299Z,100.00
2022-07-29T06:06:52.003Z,100.00
2022-07-29T06:09:18.662Z,100.00
2022-07-29T06:11:45.268Z,100.00
2022-07-29T06:14:12.237Z,100.00
2022-07-29T06:16:39.018Z,100.00
2022-07-29T06:19:05.788Z,100.00
2022-07-29T06:21:32.373Z,100.00
2022-07-29T06:23:58.925Z,100.00
2022-07-29T06:26:30.268Z,99.92
2022-07-29T06:28:58.174Z,97.14
2022-07-29T06:31:24.960Z,92.64
2022-07-29T06:33:51.620Z,90.13
2022-07-29T06:36:21.706Z,89.41
2022-07-29T06:38:51.364Z,87.45
2022-07-29T06:41:19.179Z,85.55
2022-07-29T06:43:52.104Z,85.07
2022-07-29T06:46:23.137Z,84.14
2022-07-29T06:48:50.812Z,83.05
2022-07-29T06:51:22.265Z,81.16
2022-07-29T06:53:59.869Z,78.18
2022-07-29T06:56:39.556Z,78.37
2022-07-29T06:59:11.784Z,75.99
2022-07-29T07:01:40.119Z,76.38
2022-07-29T07:04:07.334Z,73.32
2022-07-29T07:06:33.896Z,74.53
2022-07-29T07:09:00.503Z,74.80
2022-07-29T07:11:27.155Z,70.95
2022-07-29T07:13:54.834Z,69.28
2022-07-29T07:16:22.823Z,71.09
2022-07-29T07:18:49.491Z,73.83
2022-07-29T07:21:19.076Z,71.76
2022-07-29T07:23:46.619Z,70.34
2022-07-29T07:26:13.073Z,72.47
2022-07-29T07:28:39.645Z,68.99
2022-07-29T07:31:06.516Z,69.86
2022-07-29T07:33:33.086Z,69.90
2022-07-29T07:35:59.717Z,68.61
2022-07-29T07:38:26.297Z,67.62
2022-07-29T07:40:52.987Z,67.72
2022-07-29T07:43:19.621Z,64.65
2022-07-29T07:45:46.281Z,65.94
2022-07-29T07:48:12.906Z,67.61
2022-07-29T07:50:39.488Z,65.87
2022-07-29T07:53:06.191Z,63.50
2022-07-29T07:55:53.586Z,64.70
2022-07-29T07:58:19.631Z,66.75
2022-07-29T08:00:46.303Z,70.60
2022-07-29T08:03:17.170Z,68.72
2022-07-29T08:05:44.424Z,71.27
2022-07-29T08:08:10.950Z,72.01
2022-07-29T08:10:56.193Z,66.93
2022-07-29T08:13:29.194Z,68.31
2022-07-29T08:15:59.219Z,71.61
2022-07-29T08:18:29.931Z,68.72
2022-07-29T08:20:56.903Z,71.18
2022-07-29T08:23:24.144Z,71.45
2022-07-29T08:25:52.104Z,71.14
2022-07-29T08:28:21.553Z,72.23
2022-07-29T08:30:52.924Z,70.01
2022-07-29T08:33:19.597Z,69.72
2022-07-29T08:35:46.718Z,70.01
2022-07-29T08:38:13.198Z,73.01
2022-07-29T08:40:40.368Z,72.90
2022-07-29T08:43:08.678Z,74.32
2022-07-29T08:45:53.472Z,73.53
2022-07-29T08:48:23.222Z,75.49
2022-07-29T08:50:55.627Z,76.12
2022-07-29T08:53:22.751Z,73.96
2022-07-29T08:55:50.922Z,74.18
2022-07-29T08:58:18.391Z,72.94
2022-07-29T09:00:55.474Z,70.06
2022-07-29T09:03:25.264Z,70.56
2022-07-29T09:05:52.932Z,68.36
2022-07-29T09:08:21.103Z,70.25
2022-07-29T09:10:48.256Z,72.72
2022-07-29T09:13:14.865Z,67.08
2022-07-29T09:15:41.498Z,65.08
2022-07-29T09:18:08.124Z,67.27
2022-07-29T09:21:11.623Z,66.14
2022-07-29T09:23:38.221Z,65.25
2022-07-29T09:26:06.897Z,71.50
2022-07-29T09:28:33.458Z,70.93
2022-07-29T09:31:00.147Z,65.85
2022-07-29T09:33:40.260Z,67.99
2022-07-29T09:36:09.553Z,67.91
2022-07-29T09:38:38.023Z,68.94
2022-07-29T09:41:06.705Z,67.02
2022-07-29T09:43:34.585Z,67.07
2022-07-29T09:46:14.613Z,62.31
2022-07-29T09:48:41.775Z,71.62
2022-07-29T09:51:26.842Z,69.32
2022-07-29T09:53:55.317Z,62.85
2022-07-29T09:56:49.078Z,60.13
2022-07-29T09:59:15.865Z,61.99
2022-07-29T10:01:42.841Z,66.09
2022-07-29T10:04:09.931Z,67.13
2022-07-29T10:07:03.566Z,68.01
2022-07-29T10:09:31.636Z,66.86
2022-07-29T10:12:04.441Z,67.54
2022-07-29T10:14:33.598Z,66.40
2022-07-29T10:17:02.198Z,65.08
2022-07-29T10:19:33.212Z,65.04
2022-07-29T10:22:01.566Z,67.50
2022-07-29T10:24:30.270Z,62.39
2022-07-29T10:26:58.637Z,64.15
2022-07-29T10:29:26.129Z,57.06
2022-07-29T10:32:31.582Z,62.51
2022-07-29T10:35:27.533Z,63.42
2022-07-29T10:38:16.552Z,55.12
2022-07-29T10:41:09.155Z,60.81
2022-07-29T10:43:43.570Z,59.37
2022-07-29T10:46:12.444Z,64.26
2022-07-29T10:49:17.358Z,62.08
2022-07-29T10:52:10.556Z,60.97
2022-07-29T10:54:37.347Z,61.43
2022-07-29T10:57:17.909Z,62.43
2022-07-29T10:59:46.975Z,60.93
2022-07-29T11:02:43.813Z,60.69
2022-07-29T11:05:20.166Z,60.13
2022-07-29T11:08:20.268Z,58.19
2022-07-29T11:10:49.699Z,60.72
2022-07-29T11:13:57.096Z,53.27
2022-07-29T11:16:25.195Z,55.93
2022-07-29T11:19:14.412Z,52.09
2022-07-29T11:21:53.977Z,49.68
2022-07-29T11:24:28.931Z,50.42
2022-07-29T11:27:21.989Z,50.79
2022-07-29T11:29:53.499Z,52.17
2022-07-29T11:32:22.693Z,49.46
2022-07-29T11:35:17.127Z,47.91
2022-07-29T11:37:52.594Z,53.89
2022-07-29T11:40:23.077Z,50.97
2022-07-29T11:42:52.227Z,49.46
2022-07-29T11:45:42.847Z,46.21
2022-07-29T11:48:29.411Z,48.47
2022-07-29T11:50:58.613Z,49.02
2022-07-29T11:53:25.896Z,47.88
2022-07-29T11:55:58.197Z,47.83
2022-07-29T11:58:26.189Z,46.41
2022-07-29T12:00:55.727Z,47.44
2022-07-29T12:03:33.562Z,47.78
2022-07-29T12:06:15.072Z,45.44
2022-07-29T12:08:44.112Z,51.20
2022-07-29T12:11:22.716Z,51.94
2022-07-29T12:13:52.071Z,46.23
2022-07-29T12:16:25.390Z,51.79
2022-07-29T12:18:59.808Z,48.38
2022-07-29T12:21:27.082Z,44.45
2022-07-29T12:24:01.852Z,44.67
2022-07-29T12:26:32.523Z,44.13
2022-07-29T12:29:03.092Z,44.40
2022-07-29T12:31:42.956Z,43.06
2022-07-29T12:34:16.686Z,44.24
2022-07-29T12:36:44.247Z,41.13
2022-07-29T12:39:12.485Z,44.67
2022-07-29T12:41:39.851Z,48.24
2022-07-29T12:44:06.569Z,42.69
2022-07-29T12:46:33.345Z,43.77
2022-07-29T12:48:59.902Z,44.97
2022-07-29T12:51:33.779Z,43.68
2022-07-29T12:54:07.129Z,41.53
2022-07-29T12:56:42.579Z,44.78
2022-07-29T12:59:21.614Z,43.04
2022-07-29T13:01:51.522Z,41.89
2022-07-29T13:04:29.917Z,42.30
2022-07-29T13:07:04.715Z,40.88
2022-07-29T13:09:48.697Z,40.49
2022-07-29T13:12:15.651Z,42.05
2022-07-29T13:14:47.725Z,40.35
2022-07-29T13:17:24.045Z,40.55
2022-07-29T13:19:52.925Z,38.66
2022-07-29T13:22:24.366Z,41.86
2022-07-29T13:25:04.805Z,39.62
2022-07-29T13:27:33.322Z,40.43
2022-07-29T13:30:02.824Z,41.28
2022-07-29T13:32:30.827Z,38.91
2022-07-29T13:34:58.938Z,39.18
2022-07-29T13:37:26.966Z,40.28
2022-07-29T13:39:55.097Z,40.04
2022-07-29T13:42:21.757Z,38.13
2022-07-29T13:44:49.725Z,39.64
2022-07-29T13:47:17.187Z,38.78
2022-07-29T13:49:43.787Z,38.41
2022-07-29T13:52:10.440Z,39.00
2022-07-29T13:54:42.067Z,38.23
2022-07-29T13:57:11.720Z,39.20
2022-07-29T13:59:39.008Z,39.01
2022-07-29T14:02:06.548Z,38.29
2022-07-29T14:04:34.489Z,39.00
2022-07-29T14:07:03.678Z,39.67
2022-07-29T14:09:37.319Z,44.11
2022-07-29T14:12:08.962Z,41.52
2022-07-29T14:14:37.404Z,36.83
2022-07-29T14:17:04.477Z,39.61
2022-07-29T14:19:33.064Z,38.13
2022-07-29T14:22:00.196Z,42.13
2022-07-29T14:24:27.088Z,40.69
2022-07-29T14:26:53.734Z,39.11
2022-07-29T14:29:20.419Z,40.31
2022-07-29T14:31:47.033Z,43.83
2022-07-29T14:34:13.659Z,39.57
2022-07-29T14:36:40.213Z,42.16
2022-07-29T14:39:06.784Z,39.29
2022-07-29T14:41:33.819Z,44.68
2022-07-29T14:44:01.705Z,41.82
2022-07-29T14:46:28.842Z,46.55
2022-07-29T14:48:55.989Z,47.47
2022-07-29T14:51:22.629Z,41.50
2022-07-29T14:53:49.187Z,47.18
2022-07-29T14:56:36.173Z,47.06
2022-07-29T14:59:02.291Z,49.32
2022-07-29T15:01:29.019Z,49.17
2022-07-29T15:03:59.558Z,51.26
2022-07-29T15:06:27.217Z,44.15
2022-07-29T15:08:53.897Z,43.77
2022-07-29T15:11:20.471Z,47.49
2022-07-29T15:13:47.068Z,45.74
2022-07-29T15:16:13.791Z,43.51
2022-07-29T15:18:40.505Z,45.81
2022-07-29T15:21:07.963Z,45.83
2022-07-29T15:23:38.205Z,48.80
2022-07-29T15:26:05.070Z,54.27
2022-07-29T15:28:31.601Z,57.59
2022-07-29T15:30:58.171Z,56.50
2022-07-29T15:33:24.741Z,56.48
2022-07-29T15:35:51.355Z,64.76
2022-07-29T15:38:18.707Z,67.46
2022-07-29T15:40:46.614Z,67.06
2022-07-29T15:43:13.671Z,67.77
2022-07-29T15:46:03.418Z,65.44
2022-07-29T15:48:30.207Z,59.76
2022-07-29T15:50:56.806Z,60.58
2022-07-29T15:53:23.531Z,65.54
2022-07-29T15:55:50.146Z,65.31
2022-07-29T15:58:17.291Z,66.65
2022-07-29T16:00:43.971Z,62.18
2022-07-29T16:03:10.591Z,63.41
2022-07-29T16:05:37.266Z,63.72
2022-07-29T16:08:04.359Z,68.85
2022-07-29T16:10:30.944Z,68.29
2022-07-29T16:12:57.578Z,68.78
2022-07-29T16:15:24.356Z,68.20
2022-07-29T16:17:50.932Z,77.93
2022-07-29T16:20:17.585Z,70.35
2022-07-29T16:22:44.219Z,70.76
2022-07-29T16:25:10.803Z,70.34
2022-07-29T16:27:38.300Z,71.31
2022-07-29T16:30:07.984Z,69.62
2022-07-29T16:32:34.660Z,70.44
2022-07-29T16:35:02.816Z,69.98
2022-07-29T16:37:33.582Z,71.07
2022-07-29T16:40:00.302Z,71.14
2022-07-29T16:42:45.579Z,71.96
2022-07-29T16:45:13.672Z,71.22
2022-07-29T16:47:40.312Z,69.42
2022-07-29T16:50:07.503Z,69.58
2022-07-29T16:52:34.363Z,70.01
2022-07-29T16:55:00.943Z,74.17
2022-07-29T16:57:27.650Z,75.91
2022-07-29T16:59:54.305Z,75.55
2022-07-29T17:02:20.928Z,77.40
2022-07-29T17:04:47.660Z,77.98
2022-07-29T17:07:14.953Z,78.67
2022-07-29T17:09:41.882Z,79.02
2022-07-29T17:12:08.806Z,76.83
2022-07-29T17:14:35.446Z,77.77
2022-07-29T17:17:03.174Z,79.64
2022-07-29T17:19:33.885Z,79.80
2022-07-29T17:22:10.479Z,79.81
2022-07-29T17:24:41.206Z,79.19
2022-07-29T17:27:07.971Z,77.57
2022-07-29T17:29:35.265Z,79.31
2022-07-29T17:32:02.029Z,79.46
2022-07-29T17:34:28.617Z,79.05
2022-07-29T17:36:55.412Z,78.98
2022-07-29T17:39:22.327Z,78.42
2022-07-29T17:41:49.119Z,78.92
2022-07-29T17:44:15.717Z,78.56
2022-07-29T17:46:42.458Z,79.27
2022-07-29T17:49:09.349Z,82.19
2022-07-29T17:51:36.061Z,80.75
2022-07-29T17:54:02.748Z,82.53
2022-07-29T17:56:29.421Z,77.49
2022-07-29T17:58:56.119Z,79.71
2022-07-29T18:01:23.650Z,80.81
2022-07-29T18:03:50.398Z,83.11
2022-07-29T18:06:17.043Z,79.29
2022-07-29T18:08:47.494Z,79.31
2022-07-29T18:11:15.499Z,79.88
2022-07-29T18:13:42.129Z,80.79
2022-07-29T18:16:12.093Z,79.32
2022-07-29T18:18:38.788Z,73.84
2022-07-29T18:21:06.098Z,74.76
2022-07-29T18:23:32.915Z,76.62
2022-07-29T18:25:59.504Z,76.44
2022-07-29T18:28:26.240Z,75.95
2022-07-29T18:30:52.909Z,75.77
2022-07-29T18:33:22.307Z,78.61
2022-07-29T18:35:51.734Z,82.67
2022-07-29T18:38:18.594Z,80.29
2022-07-29T18:40:45.992Z,80.33
2022-07-29T18:43:13.296Z,79.75
2022-07-29T18:45:39.878Z,79.21
2022-07-29T18:48:08.479Z,78.76
2022-07-29T18:50:40.499Z,80.87
2022-07-29T18:53:06.976Z,79.61
2022-07-29T18:55:33.688Z,82.21
2022-07-29T18:58:00.319Z,82.02
2022-07-29T19:00:27.726Z,82.53
2022-07-29T19:02:54.654Z,82.91
2022-07-29T19:05:21.642Z,82.34
2022-07-29T19:07:48.243Z,82.88
2022-07-29T19:10:14.956Z,83.27
2022-07-29T19:12:41.656Z,83.69
2022-07-29T19:15:10.337Z,85.29
2022-07-29T19:17:37.022Z,86.55
2022-07-29T19:20:03.915Z,87.51
2022-07-29T19:22:31.048Z,88.16
2022-07-29T19:24:57.812Z,87.06
2022-07-29T19:27:24.523Z,86.30
2022-07-29T19:29:51.113Z,85.85
2022-07-29T19:32:24.715Z,86.62
2022-07-29T19:35:10.850Z,88.55
2022-07-29T19:37:37.577Z,88.92
2022-07-29T19:40:05.453Z,89.63
2022-07-29T19:42:32.040Z,89.30
2022-07-29T19:44:58.827Z,89.00
2022-07-29T19:47:25.880Z,86.76
2022-07-29T19:49:52.783Z,86.93
2022-07-29T19:52:19.491Z,86.88
2022-07-29T19:54:46.130Z,85.44
2022-07-29T19:57:12.790Z,87.22
2022-07-29T19:59:40.962Z,87.87
2022-07-29T20:02:10.862Z,88.36
2022-07-29T20:04:37.904Z,89.85
2022-07-29T20:07:05.397Z,89.62
2022-07-29T20:09:32.259Z,89.24
2022-07-29T20:11:59.138Z,90.47
2022-07-29T20:14:25.807Z,91.96
2022-07-29T20:16:54.367Z,92.10
2022-07-29T20:19:21.115Z,91.79
2022-07-29T20:21:47.884Z,89.77
2022-07-29T20:24:14.525Z,86.09
2022-07-29T20:26:41.144Z,87.69
2022-07-29T20:29:07.779Z,87.84
2022-07-29T20:31:36.025Z,89.51
2022-07-29T20:34:02.783Z,89.24
2022-07-29T20:36:29.634Z,90.78
2022-07-29T20:38:56.457Z,89.33
2022-07-29T20:41:23.460Z,90.47
2022-07-29T20:43:50.193Z,92.50
2022-07-29T20:46:17.122Z,92.56
2022-07-29T20:48:43.889Z,92.45
2022-07-29T20:51:11.076Z,92.29
2022-07-29T20:53:38.381Z,94.08
2022-07-29T20:56:05.653Z,95.22
2022-07-29T20:58:34.031Z,95.27
2022-07-29T21:01:01.225Z,94.74
2022-07-29T21:03:27.802Z,93.65
2022-07-29T21:05:54.441Z,93.48
2022-07-29T21:08:21.153Z,90.72
2022-07-29T21:10:48.007Z,89.59
2022-07-29T21:13:14.713Z,91.12
2022-07-29T21:15:45.024Z,91.71
2022-07-29T21:18:26.985Z,91.88
2022-07-29T21:20:57.777Z,92.75
2022-07-29T21:23:25.386Z,92.89
2022-07-29T21:25:53.344Z,91.97
2022-07-29T21:28:40.110Z,91.68
2022-07-29T21:31:07.900Z,92.26
2022-07-29T21:33:35.375Z,91.61
2022-07-29T21:38:50.473Z,92.18
2022-07-29T21:41:17.185Z,92.37
2022-07-29T21:43:43.790Z,91.98
2022-07-29T21:46:10.553Z,91.42
2022-07-29T21:48:41.177Z,88.68
2022-07-29T21:51:10.583Z,90.34
2022-07-29T21:53:37.177Z,90.63
2022-07-29T21:56:03.883Z,92.20
2022-07-29T21:58:32.599Z,91.08
2022-07-29T22:01:00.264Z,92.40
2022-07-29T22:03:27.054Z,92.40
2022-07-29T22:05:54.211Z,93.17
2022-07-29T22:08:20.805Z,92.50
2022-07-29T22:10:47.388Z,92.91
2022-07-29T22:13:13.946Z,90.92
2022-07-29T22:15:44.084Z,90.77
2022-07-29T22:18:13.464Z,89.75
2022-07-29T22:20:47.471Z,90.46
2022-07-29T22:23:14.125Z,88.89
2022-07-29T22:25:40.763Z,88.86
2022-07-29T22:28:07.357Z,88.55
2022-07-29T22:30:34.005Z,88.69
2022-07-29T22:33:00.654Z,89.88
2022-07-29T22:35:27.341Z,90.13
2022-07-29T22:37:54.258Z,90.79
2022-07-29T22:40:20.945Z,91.01
2022-07-29T22:42:47.583Z,90.88
2022-07-29T22:45:14.247Z,90.87
2022-07-29T22:47:48.154Z,91.30
2022-07-29T22:50:15.238Z,91.50
2022-07-29T22:52:41.969Z,90.63
2022-07-29T22:55:08.858Z,91.28
2022-07-29T22:57:35.517Z,90.88
2022-07-29T23:00:02.545Z,91.27
2022-07-29T23:02:29.394Z,91.83
2022-07-29T23:04:56.329Z,92.62
2022-07-29T23:07:23.489Z,92.61
2022-07-29T23:09:50.276Z,94.75
2022-07-29T23:12:17.569Z,94.92
2022-07-29T23:14:44.025Z,95.22
2022-07-29T23:17:10.689Z,94.36
2022-07-29T23:19:37.370Z,94.18
2022-07-29T23:22:04.766Z,92.66
2022-07-29T23:24:31.330Z,92.39
2022-07-29T23:26:58.149Z,92.68
2022-07-29T23:29:24.936Z,93.99
2022-07-29T23:31:51.499Z,93.14
2022-07-29T23:34:18.108Z,93.26
2022-07-29T23:36:44.747Z,93.64
2022-07-29T23:39:12.308Z,93.61
2022-07-29T23:41:39.172Z,94.49
2022-07-29T23:44:05.894Z,95.39
2022-07-29T23:46:32.503Z,95.25
2022-07-29T23:48:59.146Z,95.98
2022-07-29T23:51:25.919Z,96.76
2022-07-29T23:53:54.077Z,97.19
2022-07-29T23:56:21.224Z,97.09
2022-07-29T23:58:47.886Z,97.17
